createdAt,value
2018-02-02T00:00:49.718Z,8.03
2018-02-02T00:03:18.130Z,8.87
2018-02-02T00:05:47.366Z,7.73
2018-02-02T00:08:15.694Z,8.73
2018-02-02T00:10:44.038Z,10.83
2018-02-02T00:13:13.151Z,8.50
2018-02-02T00:15:41.571Z,7.00
2018-02-02T00:18:10.218Z,7.97
2018-02-02T00:20:38.545Z,7.00
2018-02-02T00:23:06.873Z,6.90
2018-02-02T00:25:35.226Z,7.10
2018-02-02T00:28:03.551Z,6.20
2018-02-02T00:30:32.234Z,6.60
2018-02-02T00:33:00.570Z,7.27
2018-02-02T00:35:29.666Z,7.33
2018-02-02T00:37:57.985Z,6.60
2018-02-02T00:40:27.094Z,6.20
2018-02-02T00:42:56.585Z,5.80
2018-02-02T00:45:24.898Z,5.30
2018-02-02T00:47:53.973Z,6.70
2018-02-02T00:50:22.298Z,6.50
2018-02-02T00:52:51.382Z,6.20
2018-02-02T00:55:19.713Z,5.90
2018-02-02T00:57:48.042Z,5.40
2018-02-02T01:00:16.710Z,6.53
2018-02-02T01:02:45.031Z,4.90
2018-02-02T01:05:13.363Z,5.43
2018-02-02T01:07:42.544Z,5.37
2018-02-02T01:10:10.943Z,5.00
2018-02-02T01:12:39.596Z,5.13
2018-02-02T01:15:08.026Z,4.90
2018-02-02T01:17:36.502Z,5.20
2018-02-02T01:20:04.906Z,4.40
2018-02-02T01:22:33.318Z,3.93
2018-02-02T01:25:01.970Z,4.20
2018-02-02T01:27:30.379Z,4.47
2018-02-02T01:29:58.795Z,4.87
2018-02-02T01:32:27.268Z,5.57
2018-02-02T01:34:55.596Z,4.33
2018-02-02T01:37:24.729Z,4.90
2018-02-02T01:39:53.055Z,5.20
2018-02-02T01:42:21.391Z,5.10
2018-02-02T01:44:50.486Z,5.03
2018-02-02T01:47:18.844Z,5.30
2018-02-02T01:49:47.188Z,4.60
2018-02-02T01:52:16.290Z,4.47
2018-02-02T01:54:45.445Z,5.23
2018-02-02T01:57:13.753Z,5.03
2018-02-02T01:59:42.399Z,5.50
2018-02-02T02:02:11.486Z,4.67
2018-02-02T02:04:39.817Z,4.60
2018-02-02T02:07:08.254Z,6.03
2018-02-02T02:09:36.573Z,4.50
2018-02-02T02:12:04.958Z,4.50
2018-02-02T02:14:33.305Z,4.70
2018-02-02T02:17:01.720Z,5.07
2018-02-02T02:19:30.062Z,5.03
2018-02-02T02:21:58.498Z,4.80
2018-02-02T02:24:26.818Z,4.30
2018-02-02T02:26:56.013Z,5.30
2018-02-02T02:29:24.650Z,5.23
2018-02-02T02:31:52.970Z,4.23
2018-02-02T02:34:21.303Z,3.33
2018-02-02T02:36:49.626Z,3.80
2018-02-02T02:39:17.962Z,4.60
2018-02-02T02:41:46.613Z,4.00
2018-02-02T02:44:14.949Z,4.17
2018-02-02T02:46:43.286Z,4.37
2018-02-02T02:49:12.368Z,3.87
2018-02-02T02:51:40.697Z,4.27
2018-02-02T02:54:09.095Z,4.50
2018-02-02T02:56:37.442Z,3.30
2018-02-02T02:59:05.791Z,3.70
2018-02-02T03:01:34.145Z,3.70
2018-02-02T03:04:02.571Z,3.83
2018-02-02T03:06:31.205Z,3.20
2018-02-02T03:08:59.806Z,3.50
2018-02-02T03:11:28.126Z,3.60
2018-02-02T03:13:57.212Z,3.37
2018-02-02T03:16:25.521Z,3.47
2018-02-02T03:18:54.677Z,3.07
2018-02-02T03:21:22.990Z,3.80
2018-02-02T03:23:51.308Z,3.27
2018-02-02T03:26:20.485Z,4.70
2018-02-02T03:28:48.896Z,3.87
2018-02-02T03:31:17.575Z,6.60
2018-02-02T03:33:45.993Z,4.33
2018-02-02T03:36:15.112Z,4.87
2018-02-02T03:38:44.191Z,4.83
2018-02-02T03:41:12.480Z,4.60
2018-02-02T03:43:40.972Z,4.90
2018-02-02T03:46:09.311Z,5.00
2018-02-02T03:48:37.632Z,4.57
2018-02-02T03:51:06.057Z,5.40
2018-02-02T03:53:34.410Z,4.70
2018-02-02T03:56:02.828Z,3.70
2018-02-02T03:58:31.406Z,5.40
2018-02-02T04:00:59.899Z,4.30
2018-02-02T04:03:28.226Z,4.57
2018-02-02T04:05:56.554Z,4.57
2018-02-02T04:08:25.635Z,5.47
2018-02-02T04:10:54.772Z,5.10
2018-02-02T04:13:23.394Z,4.77
2018-02-02T04:15:51.726Z,4.80
2018-02-02T04:18:20.041Z,4.43
2018-02-02T04:20:49.130Z,4.40
2018-02-02T04:23:17.449Z,4.40
2018-02-02T04:25:46.225Z,4.33
2018-02-02T04:28:15.318Z,4.40
2018-02-02T04:30:43.638Z,3.97
2018-02-02T04:33:12.739Z,4.30
2018-02-02T04:35:47.233Z,4.00
2018-02-02T04:38:15.942Z,4.37
2018-02-02T04:40:44.267Z,4.77
2018-02-02T04:43:13.365Z,5.00
2018-02-02T04:45:41.694Z,4.63
2018-02-02T04:48:10.106Z,4.33
2018-02-02T04:50:39.082Z,4.57
2018-02-02T04:53:07.419Z,4.37
2018-02-02T04:55:35.742Z,3.90
2018-02-02T04:58:04.834Z,4.90
2018-02-02T05:00:33.169Z,4.93
2018-02-02T05:03:01.578Z,4.60
2018-02-02T05:05:29.896Z,3.43
2018-02-02T05:07:58.212Z,3.70
2018-02-02T05:10:26.597Z,4.20
2018-02-02T05:12:55.685Z,3.37
2018-02-02T05:15:24.063Z,2.97
2018-02-02T05:17:52.425Z,4.20
2018-02-02T05:20:20.783Z,3.00
2018-02-02T05:22:49.114Z,2.97
2018-02-02T05:25:17.401Z,2.80
2018-02-02T05:27:45.769Z,2.40
2018-02-02T05:30:14.858Z,2.37
2018-02-02T05:32:43.194Z,2.93
2018-02-02T05:35:11.500Z,2.70
2018-02-02T05:37:39.854Z,2.63
2018-02-02T05:40:08.538Z,2.77
2018-02-02T05:42:36.872Z,2.70
2018-02-02T05:45:05.205Z,2.53
2018-02-02T05:47:33.569Z,2.80
2018-02-02T05:50:01.894Z,2.40
2018-02-02T05:52:30.644Z,2.50
2018-02-02T05:54:58.978Z,1.93
2018-02-02T05:57:27.311Z,2.00
2018-02-02T05:59:55.674Z,1.90
2018-02-02T06:02:24.786Z,1.57
2018-02-02T06:04:54.245Z,2.03
2018-02-02T06:07:22.567Z,1.43
2018-02-02T06:09:50.878Z,1.80
2018-02-02T06:12:19.982Z,1.70
2018-02-02T06:14:48.320Z,1.57
2018-02-02T06:17:16.761Z,1.87
2018-02-02T06:19:45.085Z,1.90
2018-02-02T06:22:13.487Z,1.80
2018-02-02T06:24:41.905Z,1.83
2018-02-02T06:27:10.236Z,1.43
2018-02-02T06:29:38.602Z,1.40
2018-02-02T06:32:06.931Z,1.20
2018-02-02T06:34:36.070Z,1.20
2018-02-02T06:37:05.230Z,1.10
2018-02-02T06:39:33.571Z,1.30
2018-02-02T06:42:01.922Z,1.30
2018-02-02T06:44:30.233Z,1.50
2018-02-02T06:46:58.693Z,1.03
2018-02-02T06:49:27.022Z,1.23
2018-02-02T06:51:55.341Z,1.33
2018-02-02T06:54:23.752Z,1.20
2018-02-02T06:56:52.067Z,1.27
2018-02-02T06:59:21.088Z,1.27
2018-02-02T07:01:50.184Z,1.53
2018-02-02T07:04:19.344Z,1.17
2018-02-02T07:06:48.397Z,1.10
2018-02-02T07:09:16.718Z,1.03
2018-02-02T07:11:45.192Z,1.40
2018-02-02T07:14:13.555Z,1.50
2018-02-02T07:16:41.880Z,1.53
2018-02-02T07:19:10.978Z,1.17
2018-02-02T07:21:39.295Z,1.50
2018-02-02T07:24:07.682Z,1.03
2018-02-02T07:26:36.871Z,1.47
2018-02-02T07:29:05.473Z,0.93
2018-02-02T07:31:35.504Z,1.00
2018-02-02T07:34:04.827Z,1.63
2018-02-02T07:36:33.581Z,1.90
2018-02-02T07:39:01.929Z,1.27
2018-02-02T07:41:30.284Z,1.70
2018-02-02T07:43:58.649Z,1.70
2018-02-02T07:46:26.984Z,1.80
2018-02-02T07:48:56.479Z,2.47
2018-02-02T07:51:24.804Z,2.60
2018-02-02T07:53:53.974Z,2.27
2018-02-02T07:56:22.302Z,1.67
2018-02-02T07:58:51.366Z,2.00
2018-02-02T08:01:19.988Z,2.30
2018-02-02T08:03:48.300Z,2.07
2018-02-02T08:06:17.563Z,2.93
2018-02-02T08:08:45.877Z,2.53
2018-02-02T08:11:14.225Z,3.23
2018-02-02T08:13:42.597Z,3.27
2018-02-02T08:16:10.949Z,3.47
2018-02-02T08:18:39.305Z,3.60
2018-02-02T08:21:07.640Z,3.90
2018-02-02T08:23:35.979Z,4.60
2018-02-02T08:26:04.370Z,4.50
2018-02-02T08:28:32.830Z,4.60
2018-02-02T08:31:02.034Z,5.10
2018-02-02T08:33:30.361Z,5.70
2018-02-02T08:35:58.798Z,6.07
2018-02-02T08:38:27.427Z,4.83
2018-02-02T08:40:56.595Z,4.67
2018-02-02T08:43:24.913Z,4.80
2018-02-02T08:45:53.274Z,4.80
2018-02-02T08:48:21.602Z,5.17
2018-02-02T08:50:50.004Z,7.20
2018-02-02T08:53:19.096Z,3.93
2018-02-02T08:55:47.542Z,4.23
2018-02-02T08:58:15.861Z,4.10
2018-02-02T09:00:49.806Z,4.60
2018-02-02T09:03:18.133Z,5.20
2018-02-02T09:05:46.456Z,5.60
2018-02-02T09:08:15.197Z,6.43
2018-02-02T09:10:44.310Z,5.90
2018-02-02T09:13:13.426Z,6.63
2018-02-02T09:15:42.517Z,6.37
2018-02-02T09:18:10.923Z,5.80
2018-02-02T09:20:40.165Z,4.37
2018-02-02T09:23:08.500Z,4.27
2018-02-02T09:25:36.934Z,4.50
2018-02-02T09:28:06.026Z,3.33
2018-02-02T09:30:35.134Z,3.87
2018-02-02T09:33:04.330Z,3.50
2018-02-02T09:35:32.681Z,5.20
2018-02-02T09:38:00.995Z,3.73
2018-02-02T09:40:29.328Z,3.90
2018-02-02T09:42:58.500Z,3.10
2018-02-02T09:45:27.215Z,3.40
2018-02-02T09:47:55.617Z,3.77
2018-02-02T09:50:24.807Z,3.40
2018-02-02T09:52:53.196Z,2.87
2018-02-02T09:55:21.587Z,2.63
2018-02-02T09:57:50.246Z,1.77
2018-02-02T10:00:18.623Z,2.80
2018-02-02T10:02:46.941Z,2.30
2018-02-02T10:05:15.266Z,1.80
2018-02-02T10:07:43.591Z,1.80
2018-02-02T10:12:47.618Z,1.93
2018-02-02T10:15:16.229Z,1.47
2018-02-02T10:17:45.320Z,1.50
2018-02-02T10:20:13.647Z,1.20
2018-02-02T10:22:41.986Z,1.50
2018-02-02T10:25:10.308Z,1.57
2018-02-02T10:27:38.937Z,1.80
2018-02-02T10:30:07.257Z,1.50
2018-02-02T10:32:35.581Z,1.37
2018-02-02T10:35:04.774Z,1.57
2018-02-02T10:37:33.132Z,1.00
2018-02-02T10:40:01.560Z,1.37
2018-02-02T10:42:29.865Z,2.23
2018-02-02T10:44:58.174Z,1.50
2018-02-02T10:47:26.519Z,1.50
2018-02-02T10:49:54.871Z,1.13
2018-02-02T10:52:23.594Z,1.30
2018-02-02T10:54:51.923Z,1.20
2018-02-02T10:57:20.220Z,1.23
2018-02-02T10:59:48.606Z,1.63
2018-02-02T11:02:22.689Z,1.20
2018-02-02T11:04:51.083Z,0.97
2018-02-02T11:07:19.417Z,1.40
2018-02-02T11:09:48.134Z,1.40
2018-02-02T11:12:17.213Z,1.17
2018-02-02T11:14:45.532Z,1.10
2018-02-02T11:17:14.619Z,1.13
2018-02-02T11:19:42.996Z,1.27
2018-02-02T11:22:11.642Z,0.97
2018-02-02T11:24:39.979Z,1.30
2018-02-02T11:27:08.311Z,1.20
2018-02-02T11:29:37.397Z,1.10
2018-02-02T11:32:05.729Z,1.07
2018-02-02T11:34:34.463Z,1.10
2018-02-02T11:37:02.800Z,0.83
2018-02-02T11:39:31.162Z,1.00
2018-02-02T11:41:59.482Z,0.90
2018-02-02T11:44:28.565Z,1.30
2018-02-02T11:46:56.925Z,1.70
2018-02-02T11:49:25.261Z,1.37
2018-02-02T11:51:53.955Z,1.10
2018-02-02T11:54:22.316Z,1.50
2018-02-02T11:56:50.635Z,0.80
2018-02-02T11:59:19.191Z,1.03
2018-02-02T12:01:47.494Z,1.10
2018-02-02T12:04:16.124Z,0.83
2018-02-02T12:06:44.528Z,1.07
2018-02-02T12:09:13.751Z,0.90
2018-02-02T12:11:42.843Z,0.83
2018-02-02T12:14:11.171Z,1.13
2018-02-02T12:16:39.624Z,0.90
2018-02-02T12:19:07.957Z,1.03
2018-02-02T12:21:37.320Z,1.40
2018-02-02T12:24:10.791Z,0.83
2018-02-02T12:29:55.555Z,1.27
2018-02-02T12:32:24.666Z,1.00
2018-02-02T12:37:59.038Z,1.00
2018-02-02T12:40:27.359Z,0.90
2018-02-02T12:42:55.707Z,1.00
2018-02-02T12:45:24.147Z,0.60
2018-02-02T12:48:03.212Z,0.80
2018-02-02T12:53:35.386Z,0.70
2018-02-02T12:56:04.537Z,0.80
2018-02-02T12:58:32.862Z,0.63
2018-02-02T13:01:02.680Z,0.80
2018-02-02T13:03:30.997Z,1.00
2018-02-02T13:06:00.172Z,1.13
2018-02-02T13:08:28.854Z,0.80
2018-02-02T13:10:57.277Z,0.80
2018-02-02T13:13:25.596Z,0.70
2018-02-02T13:15:54.671Z,0.70
2018-02-02T13:18:22.974Z,0.73
2018-02-02T13:20:51.707Z,0.83
2018-02-02T13:23:20.876Z,0.60
2018-02-02T13:25:49.189Z,0.70
2018-02-02T13:28:18.370Z,0.80
2018-02-02T13:30:46.672Z,0.90
2018-02-02T13:33:15.269Z,1.10
2018-02-02T13:35:43.562Z,0.90
2018-02-02T13:38:13.390Z,0.90
2018-02-02T13:40:41.677Z,0.93
2018-02-02T13:43:10.766Z,1.73
2018-02-02T13:45:41.428Z,1.00
2018-02-02T13:48:11.230Z,1.47
2018-02-02T13:50:39.541Z,1.20
2018-02-02T13:53:09.375Z,1.20
2018-02-02T13:55:37.714Z,1.13
2018-02-02T13:58:06.096Z,1.60
2018-02-02T14:00:35.193Z,1.70
2018-02-02T14:03:04.317Z,1.30
2018-02-02T14:05:32.648Z,1.87
2018-02-02T14:08:00.970Z,1.57
2018-02-02T14:10:30.065Z,1.77
2018-02-02T14:12:58.395Z,2.10
2018-02-02T14:15:26.989Z,1.63
2018-02-02T14:17:55.351Z,2.27
2018-02-02T14:20:24.450Z,1.80
2018-02-02T14:22:52.843Z,2.37
2018-02-02T14:25:21.180Z,1.70
2018-02-02T14:27:49.554Z,1.60
2018-02-02T14:30:18.621Z,1.70
2018-02-02T14:32:46.926Z,1.73
2018-02-02T14:35:16.751Z,1.83
2018-02-02T14:37:46.582Z,5.40
2018-02-02T14:40:16.045Z,2.00
2018-02-02T14:42:44.375Z,1.60
2018-02-02T14:45:12.705Z,1.67
2018-02-02T14:47:41.065Z,1.60
2018-02-02T14:50:10.887Z,2.00
2018-02-02T14:52:41.034Z,2.53
2018-02-02T14:55:10.124Z,1.83
2018-02-02T14:57:39.174Z,3.00
2018-02-02T15:00:07.523Z,2.53
2018-02-02T15:02:35.872Z,2.67
2018-02-02T15:05:04.256Z,2.20
2018-02-02T15:07:32.711Z,2.20
2018-02-02T15:10:02.578Z,2.90
2018-02-02T15:12:31.727Z,2.27
2018-02-02T15:15:00.131Z,1.93
2018-02-02T15:17:28.699Z,2.63
2018-02-02T15:19:56.995Z,2.70
2018-02-02T15:22:26.316Z,1.57
2018-02-02T15:24:54.687Z,1.43
2018-02-02T15:27:23.118Z,1.77
2018-02-02T15:29:51.934Z,2.07
2018-02-02T15:32:20.270Z,1.67
2018-02-02T15:34:48.606Z,2.93
2018-02-02T15:37:17.681Z,1.73
2018-02-02T15:39:45.982Z,2.10
2018-02-02T15:42:14.641Z,2.50
2018-02-02T15:44:42.929Z,3.30
2018-02-02T15:47:11.225Z,2.27
2018-02-02T15:49:39.551Z,2.43
2018-02-02T15:52:07.849Z,2.53
2018-02-02T15:54:36.946Z,3.50
2018-02-02T15:57:05.241Z,3.40
2018-02-02T15:59:33.573Z,3.03
2018-02-02T16:02:02.654Z,2.90
2018-02-02T16:04:30.993Z,2.03
2018-02-02T16:06:59.621Z,2.60
2018-02-02T16:09:27.940Z,2.43
2018-02-02T16:11:56.270Z,2.03
2018-02-02T16:14:24.609Z,7.60
2018-02-02T16:16:52.958Z,4.77
2018-02-02T16:19:21.404Z,5.30
2018-02-02T16:21:49.694Z,6.53
2018-02-02T16:24:18.014Z,7.40
2018-02-02T16:26:46.342Z,6.53
2018-02-02T16:29:14.666Z,4.60
2018-02-02T16:31:43.032Z,5.00
2018-02-02T16:34:11.372Z,5.57
2018-02-02T16:36:40.444Z,5.47
2018-02-02T16:39:08.770Z,4.93
2018-02-02T16:41:37.186Z,4.90
2018-02-02T16:44:05.850Z,3.30
2018-02-02T16:46:34.295Z,3.33
2018-02-02T16:49:02.746Z,3.10
2018-02-02T16:51:31.905Z,3.93
2018-02-02T16:54:00.319Z,4.77
2018-02-02T16:56:28.796Z,4.03
2018-02-02T16:58:57.126Z,4.17
2018-02-02T17:01:25.427Z,3.50
2018-02-02T17:03:54.501Z,4.47
2018-02-02T17:06:22.821Z,3.80
2018-02-02T17:08:52.204Z,4.30
2018-02-02T17:11:20.683Z,5.80
2018-02-02T17:13:49.095Z,5.13
2018-02-02T17:16:17.422Z,5.13
2018-02-02T17:18:46.528Z,4.30
2018-02-02T17:21:15.609Z,6.00
2018-02-02T17:23:43.911Z,5.70
2018-02-02T17:28:33.243Z,4.13
2018-02-02T17:31:01.870Z,4.07
2018-02-02T17:33:30.564Z,5.37
2018-02-02T17:35:58.894Z,5.77
2018-02-02T17:38:27.183Z,6.67
2018-02-02T17:40:55.502Z,6.20
2018-02-02T17:43:24.563Z,6.30
2018-02-02T17:45:52.940Z,7.83
2018-02-02T17:48:21.286Z,8.67
2018-02-02T17:50:50.394Z,8.07
2018-02-02T17:53:19.480Z,7.40
2018-02-02T17:55:47.763Z,7.47
2018-02-02T17:58:16.377Z,7.90
2018-02-02T18:00:49.375Z,7.90
2018-02-02T18:03:21.921Z,8.63
2018-02-02T18:05:50.234Z,8.00
2018-02-02T18:08:18.629Z,15.50
2018-02-02T18:10:46.950Z,10.37
2018-02-02T18:13:16.009Z,9.53
2018-02-02T18:15:44.423Z,9.10
2018-02-02T18:18:12.722Z,9.63
2018-02-02T18:20:41.018Z,10.37
2018-02-02T18:23:09.400Z,12.30
2018-02-02T18:25:37.756Z,12.30
2018-02-02T18:28:06.092Z,9.17
2018-02-02T18:30:34.400Z,9.67
2018-02-02T18:33:03.095Z,10.83
2018-02-02T18:35:32.280Z,9.77
2018-02-02T18:38:00.574Z,9.90
2018-02-02T18:40:28.951Z,10.80
2018-02-02T18:42:58.099Z,10.70
2018-02-02T18:45:27.413Z,11.27
2018-02-02T18:47:56.523Z,12.53
2018-02-02T18:50:25.613Z,8.80
2018-02-02T18:52:54.001Z,9.30
2018-02-02T18:55:22.399Z,8.10
2018-02-02T18:57:51.065Z,9.40
2018-02-02T19:00:20.353Z,7.50
2018-02-02T19:02:48.656Z,7.43
2018-02-02T19:05:16.949Z,6.40
2018-02-02T19:07:45.252Z,6.63
2018-02-02T19:10:13.898Z,8.60
2018-02-02T19:12:42.978Z,7.00
2018-02-02T19:15:11.299Z,8.00
2018-02-02T19:17:40.370Z,7.47
2018-02-02T19:20:08.677Z,8.40
2018-02-02T19:22:37.058Z,8.50
2018-02-02T19:25:05.405Z,7.50
2018-02-02T19:27:33.728Z,7.43
2018-02-02T19:30:02.051Z,9.07
2018-02-02T19:32:31.193Z,9.90
2018-02-02T19:34:59.546Z,9.20
2018-02-02T19:37:27.842Z,11.17
2018-02-02T19:39:57.004Z,10.73
2018-02-02T19:42:25.400Z,11.63
2018-02-02T19:44:53.694Z,11.60
2018-02-02T19:47:22.089Z,24.47
2018-02-02T19:49:50.425Z,11.33
2018-02-02T19:52:18.802Z,11.07
2018-02-02T19:54:47.990Z,11.00
2018-02-02T19:57:21.809Z,14.70
2018-02-02T19:59:50.540Z,12.70
2018-02-02T20:02:19.648Z,12.77
2018-02-02T20:04:48.824Z,12.60
2018-02-02T20:07:17.154Z,13.10
2018-02-02T20:09:45.555Z,12.70
2018-02-02T20:12:14.722Z,12.43
2018-02-02T20:14:43.038Z,12.93
2018-02-02T20:17:12.126Z,13.50
2018-02-02T20:19:40.468Z,16.63
2018-02-02T20:22:08.789Z,13.87
2018-02-02T20:24:37.253Z,13.23
2018-02-02T20:27:05.591Z,14.37
2018-02-02T20:29:33.992Z,16.60
2018-02-02T20:32:02.447Z,15.97
2018-02-02T20:34:30.817Z,15.40
2018-02-02T20:36:59.178Z,17.50
2018-02-02T20:39:27.528Z,14.77
2018-02-02T20:41:56.105Z,14.07
2018-02-02T20:44:24.505Z,16.27
2018-02-02T20:46:52.866Z,15.83
2018-02-02T20:49:21.958Z,15.20
2018-02-02T20:51:50.648Z,15.00
2018-02-02T20:54:19.202Z,15.90
2018-02-02T20:56:47.509Z,15.07
2018-02-02T20:59:15.828Z,14.17
2018-02-02T21:01:44.218Z,14.13
2018-02-02T21:04:12.547Z,15.17
2018-02-02T21:06:41.207Z,15.43
2018-02-02T21:09:09.615Z,13.40
2018-02-02T21:11:37.940Z,15.40
2018-02-02T21:14:06.268Z,13.77
2018-02-02T21:16:34.686Z,13.40
2018-02-02T21:19:03.855Z,13.43
2018-02-02T21:21:32.227Z,15.73
2018-02-02T21:24:01.642Z,15.13
2018-02-02T21:26:29.974Z,14.37
2018-02-02T21:28:58.294Z,14.67
2018-02-02T21:31:27.430Z,14.90
2018-02-02T21:33:55.762Z,15.83
2018-02-02T21:36:24.176Z,14.57
2018-02-02T21:38:53.283Z,14.70
2018-02-02T21:41:21.607Z,13.20
2018-02-02T21:43:49.942Z,14.00
2018-02-02T21:46:18.278Z,14.20
2018-02-02T21:48:47.682Z,12.03
2018-02-02T21:51:16.062Z,12.27
2018-02-02T21:53:44.382Z,12.97
2018-02-02T21:56:12.721Z,10.33
2018-02-02T21:58:41.075Z,14.27
2018-02-02T22:01:09.455Z,13.23
2018-02-02T22:03:37.823Z,13.47
2018-02-02T22:06:06.955Z,13.97
2018-02-02T22:08:35.396Z,16.10
2018-02-02T22:11:04.091Z,13.63
2018-02-02T22:13:33.168Z,15.67
2018-02-02T22:16:01.711Z,15.60
2018-02-02T22:18:30.025Z,15.67
2018-02-02T22:20:58.333Z,16.37
2018-02-02T22:23:26.679Z,16.17
2018-02-02T22:25:55.275Z,15.63
2018-02-02T22:28:23.655Z,17.37
2018-02-02T22:30:52.061Z,16.17
2018-02-02T22:33:20.395Z,23.70
2018-02-02T22:35:48.746Z,18.37
2018-02-02T22:38:17.073Z,18.33
2018-02-02T22:40:46.157Z,19.77
2018-02-02T22:43:14.518Z,17.97
2018-02-02T22:45:42.857Z,17.17
2018-02-02T22:48:11.224Z,16.60
2018-02-02T22:50:39.550Z,18.47
2018-02-02T22:53:07.893Z,16.00
2018-02-02T22:55:36.307Z,16.70
2018-02-02T22:58:04.665Z,16.70
2018-02-02T23:00:32.994Z,14.30
2018-02-02T23:03:01.433Z,12.40
2018-02-02T23:05:29.742Z,12.17
2018-02-02T23:07:58.428Z,9.80
2018-02-02T23:10:26.742Z,9.40
2018-02-02T23:12:55.070Z,12.47
2018-02-02T23:15:24.142Z,9.50
2018-02-02T23:17:52.453Z,10.50
2018-02-02T23:20:21.622Z,10.57
2018-02-02T23:22:50.041Z,11.97
2018-02-02T23:25:18.433Z,12.10
2018-02-02T23:27:46.736Z,13.30
2018-02-02T23:30:15.090Z,12.33
2018-02-02T23:32:43.443Z,13.07
2018-02-02T23:35:11.785Z,15.40
2018-02-02T23:37:40.396Z,15.60
2018-02-02T23:40:08.898Z,17.17
2018-02-02T23:42:37.242Z,14.17
2018-02-02T23:45:05.586Z,14.43
2018-02-02T23:47:33.890Z,10.20
2018-02-02T23:50:03.102Z,10.30
2018-02-02T23:52:32.241Z,10.00
2018-02-02T23:55:00.618Z,10.70
2018-02-02T23:57:30.908Z,14.20
2018-02-02T23:59:59.243Z,14.10
